Time;durP1;ratioP1;P1;durP2;ratioP2;P2;SDS_P1;SDS_P2;PMS_P1;PMS_P2;Temp;Humidity;BMP_temperature;BMP_pressure;BME280_temperature;BME280_humidity;BME280_pressure;Samples;Min_cycle;Max_cycle;Signal;HPM_P1;HPM_P2
2022/10/17 00:00:45;;;;;;;16.97;12.87;;;15.60;99.90;;;;;;5109179;28;20824;-65
2022/10/17 00:03:11;;;;;;;15.47;13.73;;;15.60;99.90;;;;;;5109509;28;20230;-65
2022/10/17 00:05:40;;;;;;;16.43;13.20;;;15.50;99.90;;;;;;5110197;28;20207;-64
2022/10/17 00:08:07;;;;;;;17.70;13.60;;;15.50;99.90;;;;;;5105548;28;20270;-65
2022/10/17 00:10:34;;;;;;;15.50;13.37;;;15.50;99.90;;;;;;5110953;28;20204;-65
2022/10/17 00:13:01;;;;;;;17.47;12.43;;;15.50;99.90;;;;;;5108402;28;20218;-65
2022/10/17 00:15:29;;;;;;;19.93;12.93;;;15.50;99.90;;;;;;5108041;28;20211;-65
2022/10/17 00:17:56;;;;;;;18.33;13.80;;;15.50;99.90;;;;;;5105627;28;20208;-64
2022/10/17 00:20:23;;;;;;;17.83;13.03;;;15.40;99.90;;;;;;5109861;28;20212;-65
2022/10/17 00:22:50;;;;;;;17.70;13.73;;;15.40;99.90;;;;;;5107091;28;20232;-64
2022/10/17 00:25:17;;;;;;;18.13;13.20;;;15.40;99.90;;;;;;5106219;28;20208;-64
2022/10/17 00:27:44;;;;;;;17.47;13.50;;;15.40;99.90;;;;;;5104469;28;20239;-64
2022/10/17 00:30:13;;;;;;;15.37;12.73;;;15.40;99.90;;;;;;5107716;28;20208;-65
2022/10/17 00:32:42;;;;;;;18.23;14.33;;;15.40;99.90;;;;;;5109892;28;20216;-64
2022/10/17 00:35:09;;;;;;;14.93;13.17;;;15.40;99.90;;;;;;5109370;28;20208;-65
2022/10/17 00:37:36;;;;;;;19.00;12.83;;;15.30;99.90;;;;;;5107755;28;20208;-64
2022/10/17 00:40:03;;;;;;;18.30;13.60;;;15.30;99.90;;;;;;5107152;28;20226;-65
2022/10/17 00:42:30;;;;;;;17.53;13.33;;;15.30;99.90;;;;;;5108978;28;20220;-64
2022/10/17 00:45:12;;;;;;;17.67;13.60;;;15.30;99.90;;;;;;5108745;28;20656;-65
2022/10/17 00:47:42;;;;;;;17.63;13.60;;;15.30;99.90;;;;;;5109303;28;20555;-64
2022/10/17 00:50:10;;;;;;;16.77;14.03;;;15.30;99.90;;;;;;5112940;28;20681;-65
2022/10/17 00:52:37;;;;;;;16.53;13.97;;;15.30;99.90;;;;;;5113756;28;20208;-64
2022/10/17 00:55:10;;;;;;;19.50;14.10;;;15.30;99.90;;;;;;5112389;28;20644;-66
2022/10/17 00:57:38;;;;;;;17.30;13.43;;;15.30;99.90;;;;;;5112791;28;20200;-65
2022/10/17 01:00:08;;;;;;;17.37;13.33;;;15.30;99.90;;;;;;5110780;28;20203;-66
2022/10/17 01:02:35;;;;;;;16.50;13.77;;;15.20;99.90;;;;;;5113113;28;20223;-65
2022/10/17 01:05:05;;;;;;;16.17;13.67;;;15.20;99.90;;;;;;5112304;28;20200;-66
2022/10/17 01:07:32;;;;;;;16.80;14.30;;;15.20;99.90;;;;;;5113548;28;21571;-65
2022/10/17 01:09:59;;;;;;;16.40;13.03;;;15.20;99.90;;;;;;5114025;28;20200;-65
2022/10/17 01:12:33;;;;;;;19.87;13.70;;;15.20;99.90;;;;;;5112218;28;20206;-65
2022/10/17 01:15:09;;;;;;;17.90;13.50;;;15.30;99.90;;;;;;5102106;28;20200;-64
2022/10/17 01:17:43;;;;;;;16.57;13.83;;;15.20;99.90;;;;;;5112041;28;20202;-65
2022/10/17 01:20:41;;;;;;;16.73;14.33;;;15.20;99.90;;;;;;5112291;28;20671;-65
2022/10/17 01:23:24;;;;;;;16.70;13.43;;;15.20;99.90;;;;;;5101678;28;20243;-65
2022/10/17 01:25:56;;;;;;;16.97;13.63;;;15.20;99.90;;;;;;5111844;28;20219;-65
2022/10/17 01:28:44;;;;;;;27.27;15.10;;;15.20;99.90;;;;;;5112187;28;20203;-65
2022/10/17 01:31:14;;;;;;;17.67;13.63;;;15.30;99.90;;;;;;5107790;28;20671;-64
2022/10/17 01:33:50;;;;;;;18.20;14.47;;;15.30;99.90;;;;;;5111502;28;20207;-65
2022/10/17 01:36:33;;;;;;;16.60;14.23;;;15.20;99.90;;;;;;5112984;28;20401;-65
2022/10/17 01:39:07;;;;;;;19.70;14.33;;;15.20;99.90;;;;;;5104189;28;20575;-65
2022/10/17 01:41:40;;;;;;;16.97;14.87;;;15.20;99.90;;;;;;5111374;28;20209;-64
2022/10/17 01:44:13;;;;;;;20.20;14.10;;;15.10;99.90;;;;;;5109244;28;20668;-65
2022/10/17 01:46:46;;;;;;;17.17;14.07;;;15.20;99.90;;;;;;5111840;28;20188;-65
2022/10/17 01:49:16;;;;;;;16.93;13.47;;;15.20;99.90;;;;;;5105685;28;20560;-65
2022/10/17 01:51:48;;;;;;;16.27;14.37;;;15.20;99.90;;;;;;5113148;28;20206;-64
2022/10/17 01:54:20;;;;;;;17.73;14.43;;;15.20;99.90;;;;;;5111367;28;20207;-65
2022/10/17 01:56:51;;;;;;;20.13;14.43;;;15.20;99.90;;;;;;5110903;28;20393;-65
2022/10/17 01:59:20;;;;;;;17.93;14.20;;;15.20;99.90;;;;;;5111628;28;20207;-66
2022/10/17 02:01:52;;;;;;;20.73;14.90;;;15.20;99.90;;;;;;5110761;28;20233;-65
2022/10/17 02:04:20;;;;;;;17.87;14.20;;;15.20;99.90;;;;;;5111099;28;20232;-66
2022/10/17 02:06:47;;;;;;;20.17;14.40;;;15.10;99.90;;;;;;5111184;28;20592;-66
2022/10/17 02:09:18;;;;;;;19.07;14.57;;;15.10;99.90;;;;;;5112662;28;20303;-66
2022/10/17 02:11:55;;;;;;;19.23;14.77;;;15.10;99.90;;;;;;5109490;28;20269;-66
2022/10/17 02:14:30;;;;;;;16.23;13.80;;;15.10;99.90;;;;;;5108320;28;20203;-67
2022/10/17 02:17:08;;;;;;;17.57;14.20;;;15.10;99.90;;;;;;5102561;28;20207;-66
2022/10/17 02:19:44;;;;;;;20.13;14.67;;;15.10;99.90;;;;;;5109180;28;20560;-65
2022/10/17 02:22:24;;;;;;;17.47;14.83;;;15.00;99.90;;;;;;5111180;28;20223;-67
2022/10/17 02:24:59;;;;;;;17.27;13.60;;;15.00;99.90;;;;;;5110498;28;20346;-66
2022/10/17 02:27:35;;;;;;;18.80;14.43;;;15.00;99.90;;;;;;5110765;28;20239;-66
2022/10/17 02:30:09;;;;;;;18.30;14.87;;;15.00;99.90;;;;;;5111564;28;20195;-67
2022/10/17 02:32:42;;;;;;;19.07;15.10;;;15.00;99.90;;;;;;5109300;27;20656;-67
2022/10/17 02:35:12;;;;;;;18.10;15.00;;;15.00;99.90;;;;;;5107786;28;20659;-67
2022/10/17 02:37:41;;;;;;;18.40;14.93;;;15.00;99.90;;;;;;5111664;28;20277;-67
2022/10/17 02:40:10;;;;;;;19.97;12.93;;;14.90;99.90;;;;;;5110806;28;20208;-67
2022/10/17 02:42:39;;;;;;;17.77;14.00;;;14.90;99.90;;;;;;5108553;28;20231;-67
2022/10/17 02:45:07;;;;;;;17.83;14.40;;;15.00;99.90;;;;;;5107593;28;20215;-67
2022/10/17 02:47:44;;;;;;;18.90;14.50;;;14.90;99.90;;;;;;5108869;28;20215;-67
2022/10/17 02:50:11;;;;;;;19.43;15.10;;;14.90;99.90;;;;;;5103178;28;20596;-66
2022/10/17 02:52:45;;;;;;;19.90;14.57;;;14.90;99.90;;;;;;5109507;28;20210;-67
2022/10/17 02:55:18;;;;;;;19.57;14.47;;;14.90;99.90;;;;;;5109601;28;20219;-67
2022/10/17 02:57:47;;;;;;;18.57;14.87;;;14.90;99.90;;;;;;5109654;28;20200;-67
2022/10/17 03:00:16;;;;;;;18.67;14.40;;;14.90;99.90;;;;;;5111609;28;20206;-66
2022/10/17 03:02:46;;;;;;;18.23;14.83;;;14.90;99.90;;;;;;5109827;28;20250;-66
2022/10/17 03:05:15;;;;;;;18.07;15.27;;;14.90;99.90;;;;;;5109093;28;20208;-65
2022/10/17 03:07:41;;;;;;;19.47;14.83;;;14.90;99.90;;;;;;5111156;28;20200;-66
2022/10/17 03:10:08;;;;;;;19.47;15.43;;;14.90;99.90;;;;;;5109066;28;20217;-65
2022/10/17 03:12:35;;;;;;;18.17;14.97;;;14.90;99.90;;;;;;5108190;28;20648;-64
2022/10/17 03:15:02;;;;;;;18.77;14.80;;;14.90;99.90;;;;;;5107281;28;20210;-65
2022/10/17 03:17:28;;;;;;;21.60;15.30;;;14.90;99.90;;;;;;5108752;28;20215;-66
2022/10/17 03:19:56;;;;;;;19.57;14.80;;;14.90;99.90;;;;;;5110786;28;20576;-65
2022/10/17 03:22:23;;;;;;;17.97;15.33;;;14.90;99.90;;;;;;5110202;28;20613;-65
2022/10/17 03:24:50;;;;;;;18.70;14.30;;;14.90;99.90;;;;;;5108921;28;20230;-65
2022/10/17 03:27:17;;;;;;;17.60;14.57;;;14.80;99.90;;;;;;5108945;28;20234;-65
2022/10/17 03:29:43;;;;;;;18.80;14.20;;;14.90;99.90;;;;;;5109989;28;20211;-66
2022/10/17 03:32:10;;;;;;;20.20;15.20;;;14.90;99.90;;;;;;5108814;28;20207;-66
2022/10/17 03:34:37;;;;;;;16.77;14.80;;;14.90;99.90;;;;;;5108973;28;20490;-65
2022/10/17 03:37:05;;;;;;;20.00;14.90;;;14.80;99.90;;;;;;5105297;28;20212;-65
2022/10/17 03:39:32;;;;;;;20.93;15.37;;;14.90;99.90;;;;;;5106903;28;20214;-65
2022/10/17 03:41:59;;;;;;;21.23;15.93;;;14.90;99.90;;;;;;5106982;28;20231;-66
2022/10/17 03:44:25;;;;;;;18.97;15.33;;;14.90;99.90;;;;;;5107712;28;20228;-67
2022/10/17 03:46:52;;;;;;;18.83;15.10;;;14.90;99.90;;;;;;5108951;28;20608;-67
2022/10/17 03:49:19;;;;;;;20.13;15.93;;;14.90;99.90;;;;;;5103316;28;20208;-66
2022/10/17 03:51:46;;;;;;;18.30;15.60;;;14.90;99.90;;;;;;5110096;28;20210;-66
2022/10/17 03:54:14;;;;;;;17.87;15.07;;;14.90;99.90;;;;;;5108942;28;20211;-66
2022/10/17 03:56:40;;;;;;;18.80;14.47;;;14.90;99.90;;;;;;5108443;28;20204;-67
2022/10/17 03:59:09;;;;;;;19.30;15.87;;;15.00;99.90;;;;;;5104406;28;20215;-68
2022/10/17 04:01:36;;;;;;;19.67;15.50;;;15.00;99.90;;;;;;5104797;28;20204;-68
2022/10/17 04:04:03;;;;;;;18.60;15.73;;;15.00;99.90;;;;;;5108827;28;20232;-67
2022/10/17 04:06:30;;;;;;;19.80;15.00;;;15.00;99.90;;;;;;5108246;28;20579;-67
2022/10/17 04:08:56;;;;;;;20.00;14.67;;;15.00;99.90;;;;;;5110463;28;20676;-66
2022/10/17 04:11:24;;;;;;;19.67;15.47;;;15.00;99.90;;;;;;5109579;28;20208;-67
2022/10/17 04:13:54;;;;;;;17.90;15.93;;;15.00;99.90;;;;;;5106724;28;20196;-66
2022/10/17 04:16:21;;;;;;;19.70;16.77;;;15.00;99.90;;;;;;5108065;28;20204;-67
2022/10/17 04:18:47;;;;;;;20.77;14.83;;;15.00;99.90;;;;;;5107641;28;20212;-66
2022/10/17 04:21:14;;;;;;;22.03;15.33;;;15.00;99.90;;;;;;5107741;28;20230;-67
2022/10/17 04:23:41;;;;;;;19.17;14.77;;;15.00;99.90;;;;;;5105952;28;20739;-67
2022/10/17 04:26:08;;;;;;;23.60;16.10;;;15.00;99.90;;;;;;5112382;28;20242;-66
2022/10/17 04:28:36;;;;;;;21.93;16.10;;;15.00;99.90;;;;;;5111832;28;20204;-67
2022/10/17 04:31:04;;;;;;;18.73;15.27;;;15.00;99.90;;;;;;5107033;28;20586;-68
2022/10/17 04:33:32;;;;;;;19.80;15.90;;;15.00;99.90;;;;;;5110512;28;20204;-66
2022/10/17 04:35:59;;;;;;;17.63;15.57;;;15.00;99.90;;;;;;5110223;28;20630;-67
2022/10/17 04:38:27;;;;;;;19.87;15.57;;;14.90;99.90;;;;;;5113523;28;20196;-67
2022/10/17 04:40:54;;;;;;;19.30;14.83;;;14.90;99.90;;;;;;5113148;28;20546;-67
2022/10/17 04:43:20;;;;;;;20.87;14.77;;;14.90;99.90;;;;;;5113049;28;20226;-67
2022/10/17 04:45:49;;;;;;;21.30;16.27;;;14.90;99.90;;;;;;5111563;28;20211;-67
2022/10/17 04:48:15;;;;;;;18.73;16.57;;;14.90;99.90;;;;;;5097945;28;20671;-66
2022/10/17 04:50:52;;;;;;;20.50;15.67;;;14.90;99.90;;;;;;5109045;28;20207;-66
2022/10/17 04:53:19;;;;;;;19.30;15.83;;;14.90;99.90;;;;;;5109591;28;20488;-66
2022/10/17 04:55:46;;;;;;;23.50;16.83;;;14.90;99.90;;;;;;5110255;28;20212;-67
2022/10/17 04:58:12;;;;;;;20.60;15.57;;;14.90;99.90;;;;;;5108867;28;20726;-68
2022/10/17 05:00:39;;;;;;;21.63;15.97;;;14.80;99.90;;;;;;5112168;28;20231;-65
2022/10/17 05:03:07;;;;;;;20.77;16.50;;;14.90;99.90;;;;;;5110813;28;20719;-68
2022/10/17 05:05:37;;;;;;;20.43;16.03;;;14.90;99.90;;;;;;5106651;28;20210;-68
2022/10/17 05:08:04;;;;;;;18.87;16.30;;;14.90;99.90;;;;;;5109330;28;20220;-66
2022/10/17 05:10:31;;;;;;;19.90;16.17;;;14.90;99.90;;;;;;5110809;28;20208;-67
2022/10/17 05:12:58;;;;;;;20.60;16.47;;;14.90;99.90;;;;;;5112279;28;20200;-68
2022/10/17 05:15:26;;;;;;;26.07;18.07;;;15.00;99.90;;;;;;5108909;28;20200;-66
2022/10/17 05:17:55;;;;;;;21.10;16.00;;;15.00;99.90;;;;;;5106229;28;20204;-67
2022/10/17 05:20:24;;;;;;;19.67;16.33;;;15.00;99.90;;;;;;5111615;28;20257;-67
2022/10/17 05:22:50;;;;;;;19.23;16.27;;;15.00;99.90;;;;;;5113060;28;20275;-68
2022/10/17 05:25:17;;;;;;;18.67;15.33;;;15.00;99.90;;;;;;5111077;28;20226;-67
2022/10/17 05:27:44;;;;;;;20.67;16.10;;;15.00;99.90;;;;;;5107476;28;20337;-68
2022/10/17 05:30:12;;;;;;;23.67;17.93;;;15.00;99.90;;;;;;5110766;28;20219;-69
2022/10/17 05:32:39;;;;;;;22.20;16.87;;;14.90;99.90;;;;;;5110283;28;20655;-68
2022/10/17 05:35:07;;;;;;;20.20;16.47;;;15.00;99.90;;;;;;5109048;28;20212;-69
2022/10/17 05:37:35;;;;;;;21.97;16.87;;;15.00;99.90;;;;;;5110440;28;20295;-67
2022/10/17 05:40:02;;;;;;;20.53;16.50;;;14.90;99.90;;;;;;5108225;28;20211;-67
2022/10/17 05:42:28;;;;;;;20.73;16.40;;;15.00;99.90;;;;;;5102826;28;20212;-68
2022/10/17 05:44:55;;;;;;;21.70;16.63;;;15.10;99.90;;;;;;5106737;28;20226;-69
2022/10/17 05:47:22;;;;;;;20.07;16.43;;;15.00;99.90;;;;;;5107940;28;20212;-68
2022/10/17 05:49:49;;;;;;;21.60;16.80;;;15.00;99.90;;;;;;5109371;28;20200;-67
2022/10/17 05:52:15;;;;;;;21.97;16.77;;;15.10;99.90;;;;;;5111867;28;20291;-67
2022/10/17 05:54:43;;;;;;;22.37;17.03;;;15.10;99.90;;;;;;5111483;28;20200;-67
2022/10/17 05:57:10;;;;;;;21.33;16.63;;;15.10;99.90;;;;;;5112255;28;20207;-67
2022/10/17 05:59:37;;;;;;;23.33;17.13;;;15.10;99.90;;;;;;5110432;28;20207;-65
2022/10/17 06:02:04;;;;;;;19.93;15.73;;;15.20;99.90;;;;;;5104970;28;21121;-66
2022/10/17 06:04:31;;;;;;;21.27;16.47;;;15.20;99.90;;;;;;5111345;28;20219;-66
2022/10/17 06:06:57;;;;;;;22.23;17.30;;;15.20;99.90;;;;;;5111360;28;20200;-68
2022/10/17 06:09:24;;;;;;;21.70;17.43;;;15.20;99.90;;;;;;5111276;28;20221;-67
2022/10/17 06:11:52;;;;;;;23.80;17.07;;;15.20;99.90;;;;;;5107353;28;20211;-67
2022/10/17 06:14:19;;;;;;;26.77;17.43;;;15.30;99.90;;;;;;5109752;28;20203;-67
2022/10/17 06:16:46;;;;;;;23.93;17.03;;;15.30;99.90;;;;;;5103184;28;20199;-67
2022/10/17 06:19:13;;;;;;;23.57;16.50;;;15.40;99.90;;;;;;5106048;28;20220;-67
2022/10/17 06:21:40;;;;;;;21.33;17.57;;;15.50;99.90;;;;;;5110835;28;20203;-68
2022/10/17 06:24:06;;;;;;;20.90;17.73;;;15.50;99.90;;;;;;5112103;28;20235;-67
2022/10/17 06:26:33;;;;;;;22.90;17.47;;;15.60;99.90;;;;;;5108549;28;20240;-67
2022/10/17 06:29:01;;;;;;;20.47;16.10;;;15.70;99.90;;;;;;5110653;28;20208;-67
2022/10/17 06:31:28;;;;;;;24.03;17.33;;;15.80;99.90;;;;;;5109231;28;20226;-68
2022/10/17 06:33:55;;;;;;;21.43;15.93;;;15.80;99.90;;;;;;5101400;28;20212;-68
2022/10/17 06:36:22;;;;;;;22.43;17.20;;;15.90;99.90;;;;;;5103311;28;20287;-68
2022/10/17 06:38:49;;;;;;;23.20;16.73;;;16.00;99.90;;;;;;5105889;28;20322;-67
2022/10/17 06:41:18;;;;;;;21.97;17.27;;;16.10;99.90;;;;;;5105256;28;20212;-68
2022/10/17 06:43:46;;;;;;;21.73;16.13;;;16.20;99.90;;;;;;5108012;28;20676;-66
2022/10/17 06:46:15;;;;;;;26.63;17.57;;;16.30;99.90;;;;;;5107653;28;20575;-68
2022/10/17 06:48:42;;;;;;;26.45;17.95;;;16.40;99.90;;;;;;5108592;28;20212;-67
2022/10/17 06:51:10;;;;;;;23.08;16.65;;;16.50;99.90;;;;;;5105115;28;20208;-65
2022/10/17 06:53:38;;;;;;;22.02;17.33;;;16.70;99.90;;;;;;5107175;28;20597;-65
2022/10/17 06:56:07;;;;;;;23.75;16.30;;;16.90;99.90;;;;;;5108175;28;20208;-65
2022/10/17 06:58:37;;;;;;;23.10;16.40;;;17.20;99.90;;;;;;5105252;28;20391;-66
2022/10/17 07:01:06;;;;;;;20.75;16.55;;;17.50;99.90;;;;;;5100939;28;20235;-65
2022/10/17 07:03:35;;;;;;;23.63;17.40;;;17.70;99.90;;;;;;5103851;28;20461;-65
2022/10/17 07:06:02;;;;;;;20.65;16.15;;;17.70;99.90;;;;;;5107324;28;20629;-65
2022/10/17 07:08:29;;;;;;;19.63;15.27;;;17.80;99.90;;;;;;5102744;28;20219;-65
2022/10/17 07:10:56;;;;;;;22.27;16.52;;;17.90;99.90;;;;;;5107038;28;20212;-65
2022/10/17 07:13:23;;;;;;;23.67;17.33;;;18.00;99.90;;;;;;5107620;28;20204;-66
2022/10/17 07:15:50;;;;;;;23.17;17.10;;;18.10;99.90;;;;;;5101283;28;20219;-66
2022/10/17 07:18:17;;;;;;;33.05;20.38;;;18.30;99.90;;;;;;5101562;28;20215;-66
2022/10/17 07:20:52;;;;;;;21.70;17.83;;;18.40;99.90;;;;;;5106032;28;20307;-66
2022/10/17 07:23:19;;;;;;;23.50;18.08;;;18.60;99.90;;;;;;5108476;28;20234;-66
2022/10/17 07:25:46;;;;;;;59.13;28.60;;;18.60;99.90;;;;;;5105905;28;20231;-66
2022/10/17 07:28:14;;;;;;;20.00;16.92;;;18.80;99.90;;;;;;5107938;28;20239;-66
2022/10/17 07:30:40;;;;;;;24.67;17.23;;;18.80;99.90;;;;;;5108294;28;20584;-66
2022/10/17 07:33:07;;;;;;;33.20;21.13;;;18.80;99.90;;;;;;5107425;28;20196;-65
2022/10/17 07:35:34;;;;;;;20.23;16.50;;;18.90;99.90;;;;;;5107540;28;20211;-65
2022/10/17 07:38:02;;;;;;;23.88;16.55;;;19.10;99.90;;;;;;5105854;28;20632;-66
2022/10/17 07:40:29;;;;;;;24.48;18.98;;;19.10;99.90;;;;;;5105217;28;20493;-68
2022/10/17 07:42:56;;;;;;;25.92;17.27;;;19.80;99.90;;;;;;5110542;28;20207;-68
2022/10/17 07:45:26;;;;;;;27.90;19.27;;;19.20;99.90;;;;;;5108441;28;20254;-69
2022/10/17 07:47:55;;;;;;;22.23;17.30;;;19.20;99.90;;;;;;5104247;28;20200;-67
2022/10/17 07:50:22;;;;;;;24.42;17.50;;;19.30;99.90;;;;;;5110992;28;20192;-67
2022/10/17 07:52:49;;;;;;;23.27;17.52;;;19.30;99.90;;;;;;5109933;28;20214;-68
2022/10/17 07:55:17;;;;;;;24.35;17.38;;;19.40;99.90;;;;;;5106517;28;20218;-68
2022/10/17 07:57:44;;;;;;;21.77;16.05;;;19.50;99.90;;;;;;5109305;28;20211;-67
2022/10/17 08:00:11;;;;;;;21.52;17.10;;;19.60;99.90;;;;;;5112751;28;20211;-64
2022/10/17 08:02:38;;;;;;;21.10;17.35;;;19.80;99.90;;;;;;5113596;28;20203;-65
2022/10/17 08:05:06;;;;;;;24.35;16.30;;;20.00;99.90;;;;;;5112669;28;20223;-65
2022/10/17 08:07:34;;;;;;;21.75;16.70;;;20.20;99.90;;;;;;5110767;28;20203;-66
2022/10/17 08:10:01;;;;;;;17.52;15.52;;;20.30;99.90;;;;;;5114238;28;20211;-65
2022/10/17 08:12:31;;;;;;;21.25;15.93;;;20.40;99.90;;;;;;5108407;28;20215;-65
2022/10/17 08:14:58;;;;;;;18.88;16.77;;;20.40;99.90;;;;;;5110257;27;20234;-65
2022/10/17 08:17:24;;;;;;;26.85;16.95;;;20.40;99.90;;;;;;5105582;28;20204;-65
2022/10/17 08:19:51;;;;;;;18.38;15.75;;;20.40;99.90;;;;;;5107144;27;20216;-66
2022/10/17 08:22:18;;;;;;;22.75;14.82;;;20.60;99.90;;;;;;5111239;28;20687;-65
2022/10/17 08:24:45;;;;;;;17.95;14.80;;;20.70;99.90;;;;;;5112085;28;20601;-67
2022/10/17 08:27:12;;;;;;;19.90;15.80;;;20.90;99.90;;;;;;5114309;28;20227;-65
2022/10/17 08:29:41;;;;;;;19.77;16.20;;;21.00;99.90;;;;;;5111721;28;20204;-67
2022/10/17 08:32:08;;;;;;;20.90;16.08;;;21.20;99.90;;;;;;5113018;28;20615;-65
2022/10/17 08:34:35;;;;;;;22.95;16.95;;;21.30;99.90;;;;;;5108534;28;20257;-67
2022/10/17 08:37:02;;;;;;;22.70;15.80;;;21.30;99.90;;;;;;5113500;28;20200;-66
2022/10/17 08:39:29;;;;;;;20.85;16.38;;;21.50;99.90;;;;;;5114286;28;20199;-66
2022/10/17 08:42:05;;;;;;;20.48;15.82;;;21.50;99.90;;;;;;5110480;28;20200;-66
2022/10/17 08:44:45;;;;;;;17.17;14.68;;;21.70;99.90;;;;;;5109814;27;20223;-66
2022/10/17 08:47:19;;;;;;;20.08;15.93;;;22.10;99.90;;;;;;5112299;28;20207;-66
2022/10/17 08:49:51;;;;;;;19.02;15.75;;;22.70;99.90;;;;;;5112109;28;20206;-65
2022/10/17 08:52:29;;;;;;;17.33;15.07;;;23.80;99.90;;;;;;5113571;28;20692;-65
2022/10/17 08:54:55;;;;;;;26.67;15.65;;;25.90;99.90;;;;;;5112670;28;20199;-65
2022/10/17 08:57:22;;;;;;;18.83;13.90;;;28.30;98.20;;;;;;5107638;28;20219;-66
2022/10/17 08:59:53;;;;;;;15.85;13.75;;;30.40;89.80;;;;;;5114249;28;20204;-65
2022/10/17 09:02:35;;;;;;;20.13;12.75;;;32.30;75.40;;;;;;5113934;28;20211;-66
2022/10/17 09:05:31;;;;;;;19.67;13.27;;;33.90;64.70;;;;;;5113467;28;20215;-65
2022/10/17 09:08:07;;;;;;;17.58;13.30;;;35.60;57.50;;;;;;5103785;28;20596;-68
2022/10/17 09:10:46;;;;;;;14.20;12.23;;;37.30;52.20;;;;;;5113583;28;20210;-68
2022/10/17 09:13:22;;;;;;;14.75;12.25;;;38.80;48.50;;;;;;5115274;28;20622;-67
2022/10/17 09:16:09;;;;;;;14.43;12.98;;;39.90;45.40;;;;;;5113142;28;20546;-67
2022/10/17 09:18:39;;;;;;;13.23;11.90;;;40.80;43.00;;;;;;5104002;28;20207;-68
2022/10/17 09:21:17;;;;;;;17.40;12.95;;;41.40;41.30;;;;;;5113220;28;20210;-71
2022/10/17 09:23:48;;;;;;;15.60;12.65;;;42.00;39.70;;;;;;5103538;28;20223;-69
2022/10/17 09:26:15;;;;;;;12.95;11.65;;;42.90;38.40;;;;;;5105312;27;20242;-67
2022/10/17 09:28:43;;;;;;;16.77;11.25;;;43.60;37.30;;;;;;5102944;28;20219;-67
2022/10/17 09:31:20;;;;;;;13.20;11.65;;;44.40;36.50;;;;;;5109600;28;20207;-68
2022/10/17 09:33:49;;;;;;;14.35;10.70;;;44.80;35.10;;;;;;5104730;28;20204;-68
2022/10/17 09:36:18;;;;;;;13.27;11.35;;;44.70;34.80;;;;;;5114368;28;20209;-67
2022/10/17 09:38:49;;;;;;;12.00;10.77;;;44.60;34.50;;;;;;5111990;28;20211;-68
2022/10/17 09:41:19;;;;;;;15.05;12.32;;;44.40;35.10;;;;;;5109933;28;20292;-68
2022/10/17 09:43:46;;;;;;;13.02;11.40;;;44.50;34.20;;;;;;5112366;28;20691;-68
2022/10/17 09:46:20;;;;;;;12.30;10.98;;;44.70;34.10;;;;;;5112802;28;20223;-68
2022/10/17 09:48:51;;;;;;;13.88;11.32;;;45.10;33.40;;;;;;5111547;28;20199;-69
2022/10/17 09:51:18;;;;;;;12.73;11.32;;;45.40;33.20;;;;;;5109818;28;20618;-69
2022/10/17 09:53:49;;;;;;;12.68;11.10;;;45.60;32.90;;;;;;5113419;28;20672;-68
2022/10/17 09:56:18;;;;;;;12.15;10.95;;;46.30;32.20;;;;;;5111730;28;20265;-69
2022/10/17 09:58:47;;;;;;;12.57;10.48;;;46.80;31.50;;;;;;5113164;28;20199;-69
2022/10/17 10:01:22;;;;;;;12.27;10.60;;;47.60;30.90;;;;;;5113090;28;20210;-68
2022/10/17 10:04:07;;;;;;;13.57;10.18;;;48.20;30.00;;;;;;5103099;28;20229;-67
2022/10/17 10:06:35;;;;;;;11.88;10.52;;;48.30;29.90;;;;;;5111343;28;20226;-68
2022/10/17 10:09:04;;;;;;;11.38;10.20;;;49.20;29.50;;;;;;5104403;28;20207;-67
2022/10/17 10:11:46;;;;;;;12.57;10.20;;;49.60;28.80;;;;;;5109615;28;20297;-67
2022/10/17 10:14:22;;;;;;;10.98;9.88;;;50.00;28.10;;;;;;5097693;28;20290;-69
2022/10/17 10:16:53;;;;;;;10.40;9.40;;;50.00;28.10;;;;;;5108918;27;20203;-68
2022/10/17 10:19:26;;;;;;;9.90;8.93;;;50.10;28.10;;;;;;5110493;27;20196;-68
2022/10/17 10:21:56;;;;;;;10.73;9.70;;;50.40;28.00;;;;;;5115777;27;20198;-69
2022/10/17 10:24:26;;;;;;;10.20;9.07;;;50.40;27.80;;;;;;5118555;27;20656;-71
2022/10/17 10:26:55;;;;;;;10.02;9.07;;;50.50;27.70;;;;;;5113582;28;20322;-67
2022/10/17 10:29:27;;;;;;;10.05;9.05;;;50.80;27.40;;;;;;5109336;28;20230;-66
2022/10/17 10:31:56;;;;;;;10.80;9.50;;;50.80;27.30;;;;;;5112072;28;20191;-66
2022/10/17 10:34:26;;;;;;;12.95;8.00;;;51.10;27.00;;;;;;5111852;28;20583;-67
2022/10/17 10:37:03;;;;;;;10.75;8.57;;;51.20;26.90;;;;;;5111994;28;20294;-67
2022/10/17 10:39:42;;;;;;;12.50;8.70;;;51.30;26.70;;;;;;5110740;28;20203;-67
2022/10/17 10:42:22;;;;;;;9.80;8.63;;;50.90;26.50;;;;;;5108307;28;20206;-66
2022/10/17 10:44:50;;;;;;;9.27;7.82;;;50.50;26.80;;;;;;5106963;28;20202;-68
2022/10/17 10:47:25;;;;;;;17.30;8.55;;;50.10;26.80;;;;;;5108595;28;20203;-69
2022/10/17 10:49:53;;;;;;;8.57;7.72;;;49.80;27.10;;;;;;5109852;28;20203;-69
2022/10/17 10:52:31;;;;;;;14.00;8.20;;;49.70;27.00;;;;;;5111248;28;20289;-70
2022/10/17 10:55:10;;;;;;;9.50;8.15;;;49.70;27.10;;;;;;5107185;28;20195;-68
2022/10/17 10:57:38;;;;;;;10.35;8.45;;;49.40;27.10;;;;;;5108361;28;20191;-68
2022/10/17 11:00:12;;;;;;;9.07;8.18;;;48.70;27.40;;;;;;5112120;28;20199;-70
2022/10/17 11:02:51;;;;;;;9.52;8.48;;;48.20;27.50;;;;;;5110770;28;20209;-66
2022/10/17 11:05:22;;;;;;;11.30;8.90;;;48.00;27.70;;;;;;5106635;28;20211;-67
2022/10/17 11:07:54;;;;;;;9.45;8.38;;;47.60;28.20;;;;;;5107186;28;20575;-67
2022/10/17 11:10:27;;;;;;;11.00;8.32;;;47.30;28.40;;;;;;5106303;28;20229;-66
2022/10/17 11:13:01;;;;;;;9.63;8.68;;;47.30;28.30;;;;;;5111940;28;20601;-67
2022/10/17 11:15:34;;;;;;;11.65;8.73;;;47.20;28.20;;;;;;5110562;28;20206;-67
2022/10/17 11:18:05;;;;;;;9.30;8.40;;;47.20;28.40;;;;;;5108839;28;20210;-66
2022/10/17 11:20:42;;;;;;;10.73;8.10;;;46.60;28.30;;;;;;5109702;28;20684;-66
2022/10/17 11:23:19;;;;;;;12.15;8.73;;;46.70;28.70;;;;;;5104637;28;20241;-66
2022/10/17 11:25:47;;;;;;;9.32;8.45;;;46.80;28.50;;;;;;5109053;28;20214;-66
2022/10/17 11:28:17;;;;;;;8.82;7.93;;;46.60;29.00;;;;;;5107818;28;20223;-66
2022/10/17 11:30:51;;;;;;;8.70;7.90;;;45.90;28.70;;;;;;5105546;28;20559;-65
2022/10/17 11:33:25;;;;;;;10.20;8.75;;;45.80;29.10;;;;;;5109579;28;20207;-66
2022/10/17 11:35:54;;;;;;;12.02;8.40;;;45.60;29.20;;;;;;5110245;28;20570;-65
2022/10/17 11:38:26;;;;;;;9.18;8.27;;;45.80;29.80;;;;;;5109661;28;20207;-66
2022/10/17 11:40:58;;;;;;;8.93;8.07;;;46.10;29.30;;;;;;5108822;28;20663;-66
2022/10/17 11:43:30;;;;;;;11.60;8.55;;;46.50;28.60;;;;;;5100885;28;20674;-67
2022/10/17 11:46:02;;;;;;;9.05;8.15;;;46.70;28.20;;;;;;5109552;28;20211;-67
2022/10/17 11:48:37;;;;;;;9.80;8.82;;;46.80;28.60;;;;;;5096774;28;20203;-68
2022/10/17 11:51:09;;;;;;;10.20;9.13;;;46.60;28.60;;;;;;5110314;28;20209;-67
2022/10/17 11:53:47;;;;;;;9.93;9.00;;;46.60;28.60;;;;;;5110970;28;20744;-68
2022/10/17 11:56:20;;;;;;;12.45;9.25;;;46.80;28.70;;;;;;5108872;28;20199;-68
2022/10/17 11:58:54;;;;;;;12.98;8.60;;;46.60;28.20;;;;;;5109591;28;20199;-66
2022/10/17 12:01:28;;;;;;;10.20;8.45;;;46.80;28.60;;;;;;5105135;28;20613;-67
2022/10/17 12:04:17;;;;;;;9.70;8.80;;;47.60;28.10;;;;;;5106381;28;20202;-68
2022/10/17 12:06:59;;;;;;;10.48;8.80;;;48.20;27.80;;;;;;5110107;28;20255;-67
2022/10/17 12:09:37;;;;;;;10.93;8.90;;;48.70;26.20;;;;;;5106844;28;20214;-66
2022/10/17 12:12:04;;;;;;;10.15;8.32;;;48.50;26.80;;;;;;5109690;28;20563;-67
2022/10/17 12:14:40;;;;;;;10.75;9.07;;;46.70;27.40;;;;;;5111030;28;20199;-67
2022/10/17 12:17:23;;;;;;;13.10;9.50;;;42.30;29.80;;;;;;5100431;28;20204;-67
2022/10/17 12:19:51;;;;;;;9.73;8.73;;;40.30;32.30;;;;;;5104414;28;20204;-66
2022/10/17 12:22:21;;;;;;;11.75;9.13;;;39.10;33.40;;;;;;5111368;28;20219;-67
2022/10/17 12:24:57;;;;;;;11.85;9.52;;;39.10;34.00;;;;;;5111163;28;20485;-68
2022/10/17 12:27:33;;;;;;;9.65;8.75;;;39.20;35.50;;;;;;5110665;28;20242;-66
2022/10/17 12:30:01;;;;;;;10.18;8.63;;;38.90;34.20;;;;;;5099778;28;20206;-67
2022/10/17 12:32:28;;;;;;;11.88;9.18;;;38.60;36.20;;;;;;5111073;28;20203;-67
2022/10/17 12:34:57;;;;;;;12.18;8.20;;;39.70;35.20;;;;;;5110137;28;20474;-67
2022/10/17 12:38:16;;;;;;;12.57;8.75;;;39.70;35.50;;;;;;5110302;28;20264;-66
2022/10/17 12:41:05;;;;;;;9.70;8.70;;;40.90;33.70;;;;;;5100437;28;20200;-66
2022/10/17 12:43:52;;;;;;;15.18;9.10;;;40.70;32.80;;;;;;5102784;28;20219;-67
2022/10/17 12:46:49;;;;;;;14.32;10.63;;;39.40;34.00;;;;;;5112486;28;20215;-69